createdAt,value
2019-04-23T00:01:08.018Z,11.87
2019-04-23T00:02:04.009Z,11.90
2019-04-23T00:02:58.829Z,11.74
2019-04-23T00:04:03.760Z,11.87
2019-04-23T00:04:55.562Z,11.87
2019-04-23T00:06:06.731Z,11.79
2019-04-23T00:07:10.725Z,11.77
2019-04-23T00:08:23.341Z,11.75
2019-04-23T00:10:04.544Z,11.77
2019-04-23T00:11:08.672Z,11.75
2019-04-23T00:12:01.804Z,11.69
2019-04-23T00:13:12.867Z,11.67
2019-04-23T00:15:08.692Z,11.54
2019-04-23T00:16:03.463Z,11.57
2019-04-23T00:17:01.117Z,11.53
2019-04-23T00:18:04.133Z,11.49
2019-04-23T00:18:59.342Z,11.42
2019-04-23T00:20:06.454Z,11.41
2019-04-23T00:20:57.632Z,11.44
2019-04-23T00:23:05.047Z,11.36
2019-04-23T00:24:17.580Z,11.38
2019-04-23T00:25:25.632Z,11.35
2019-04-23T00:27:05.854Z,11.35
2019-04-23T00:28:06.528Z,11.33
2019-04-23T00:29:05.420Z,11.33
2019-04-23T00:30:04.457Z,11.26
2019-04-23T00:31:18.501Z,11.35
2019-04-23T00:32:04.811Z,11.27
2019-04-23T00:33:07.487Z,11.33
2019-04-23T00:34:04.156Z,11.27
2019-04-23T00:35:12.643Z,11.24
2019-04-23T00:35:56.114Z,11.30
2019-04-23T00:37:01.592Z,11.26
2019-04-23T00:38:04.999Z,11.27
2019-04-23T00:38:54.271Z,11.19
2019-04-23T00:39:56.766Z,11.11
2019-04-23T00:40:57.661Z,11.21
2019-04-23T00:41:58.686Z,11.24
2019-04-23T00:43:02.012Z,11.13
2019-04-23T00:44:02.952Z,11.19
2019-04-23T00:44:56.270Z,11.12
2019-04-23T00:45:55.076Z,11.13
2019-04-23T00:47:00.779Z,11.16
2019-04-23T00:47:54.703Z,11.13
2019-04-23T00:49:07.427Z,11.13
2019-04-23T00:50:08.611Z,11.09
2019-04-23T00:51:09.996Z,11.03
2019-04-23T00:52:00.735Z,11.02
2019-04-23T00:53:01.949Z,11.01
2019-04-23T00:53:58.700Z,11.03
2019-04-23T00:55:07.266Z,11.08
2019-04-23T00:57:00.766Z,10.95
2019-04-23T00:58:08.491Z,11.02
2019-04-23T00:59:01.047Z,11.01
2019-04-23T01:00:03.455Z,11.03
2019-04-23T01:00:58.552Z,11.01
2019-04-23T01:02:59.056Z,10.91
2019-04-23T01:04:02.285Z,10.98
2019-04-23T01:05:08.547Z,11.01
2019-04-23T01:06:04.600Z,10.94
2019-04-23T01:07:00.288Z,10.93
2019-04-23T01:07:58.137Z,10.88
2019-04-23T01:09:25.764Z,10.86
2019-04-23T01:10:01.154Z,10.80
2019-04-23T01:11:59.400Z,10.80
2019-04-23T01:13:00.067Z,10.75
2019-04-23T01:13:54.030Z,10.69
2019-04-23T01:15:02.751Z,10.70
2019-04-23T01:15:59.611Z,10.70
2019-04-23T01:17:01.801Z,10.73
2019-04-23T01:18:08.122Z,10.80
2019-04-23T01:20:17.618Z,10.69
2019-04-23T01:20:52.924Z,10.65
2019-04-23T01:21:38.949Z,10.75
2019-04-23T01:22:37.953Z,10.72
2019-04-23T01:23:44.535Z,10.75
2019-04-23T01:24:40.350Z,10.70
2019-04-23T01:25:50.105Z,10.66
2019-04-23T01:27:18.468Z,10.66
2019-04-23T01:28:05.851Z,10.68
2019-04-23T01:29:01.410Z,10.73
2019-04-23T01:31:09.359Z,10.63
2019-04-23T01:31:58.886Z,10.58
2019-04-23T01:33:03.313Z,10.60
2019-04-23T01:34:07.976Z,10.66
2019-04-23T01:35:12.863Z,10.52
2019-04-23T01:36:16.150Z,10.60
2019-04-23T01:37:01.092Z,10.54
2019-04-23T01:37:59.430Z,10.55
2019-04-23T01:39:06.217Z,10.52
2019-04-23T01:40:03.757Z,10.54
2019-04-23T01:41:07.795Z,10.46
2019-04-23T01:42:24.023Z,10.44
2019-04-23T01:43:05.495Z,10.44
2019-04-23T01:43:58.225Z,10.51
2019-04-23T01:45:06.997Z,10.44
2019-04-23T01:46:04.592Z,10.47
2019-04-23T01:47:05.935Z,10.43
2019-04-23T01:48:00.055Z,10.44
2019-04-23T01:49:07.770Z,10.46
2019-04-23T01:50:09.672Z,10.42
2019-04-23T01:50:57.509Z,10.42
2019-04-23T01:52:12.911Z,10.36
2019-04-23T01:53:12.298Z,10.28
2019-04-23T01:54:06.917Z,10.38
2019-04-23T01:55:08.127Z,10.32
2019-04-23T01:56:21.073Z,10.28
2019-04-23T01:57:06.290Z,10.34
2019-04-23T01:58:23.749Z,10.29
2019-04-23T01:59:05.108Z,10.29
2019-04-23T02:00:08.876Z,10.32
2019-04-23T02:02:08.651Z,10.18
2019-04-23T02:03:03.674Z,10.24
2019-04-23T02:05:09.742Z,10.17
2019-04-23T02:07:08.452Z,10.02
2019-04-23T02:08:03.516Z,10.11
2019-04-23T02:09:10.165Z,10.16
2019-04-23T02:10:08.343Z,10.09
2019-04-23T02:11:10.514Z,10.13
2019-04-23T02:12:04.422Z,10.07
2019-04-23T02:14:01.707Z,10.17
2019-04-23T02:15:03.690Z,10.07
2019-04-23T02:16:01.321Z,10.13
2019-04-23T02:17:00.144Z,10.01
2019-04-23T02:18:05.528Z,10.13
2019-04-23T02:19:07.697Z,10.09
2019-04-23T02:20:14.124Z,10.04
2019-04-23T02:20:59.539Z,10.04
2019-04-23T02:22:05.074Z,10.01
2019-04-23T02:23:14.930Z,10.04
2019-04-23T02:23:57.203Z,9.98
2019-04-23T02:25:02.401Z,9.95
2019-04-23T02:26:03.011Z,9.99
2019-04-23T02:27:05.950Z,9.95
2019-04-23T02:28:07.521Z,9.92
2019-04-23T02:29:28.753Z,9.86
2019-04-23T02:30:15.146Z,9.86
2019-04-23T02:31:21.383Z,9.89
2019-04-23T02:33:19.644Z,9.91
2019-04-23T02:34:21.338Z,9.89
2019-04-23T02:35:38.638Z,9.93
2019-04-23T02:37:14.971Z,9.91
2019-04-23T02:40:13.599Z,9.83
2019-04-23T02:41:13.182Z,9.91
2019-04-23T02:43:12.662Z,9.85
2019-04-23T02:45:10.231Z,9.78
2019-04-23T02:46:06.094Z,9.75
2019-04-23T02:47:23.558Z,9.77
2019-04-23T02:49:22.097Z,9.75
2019-04-23T02:50:29.654Z,9.75
2019-04-23T02:51:12.535Z,9.75
2019-04-23T02:52:21.361Z,9.73
2019-04-23T02:53:20.841Z,9.67
2019-04-23T02:54:16.027Z,9.75
2019-04-23T02:55:29.549Z,9.67
2019-04-23T02:56:24.181Z,9.73
2019-04-23T02:57:08.900Z,9.68
2019-04-23T02:58:11.002Z,9.71
2019-04-23T03:02:24.076Z,9.68
2019-04-23T03:06:05.937Z,9.62
2019-04-23T03:07:16.168Z,9.65
2019-04-23T03:08:06.329Z,9.70
2019-04-23T03:09:13.002Z,9.67
2019-04-23T03:10:09.983Z,9.70
2019-04-23T03:11:24.988Z,9.60
2019-04-23T03:13:19.813Z,9.50
2019-04-23T03:14:12.094Z,9.65
2019-04-23T03:16:15.541Z,9.70
2019-04-23T03:18:25.858Z,9.67
2019-04-23T03:19:11.311Z,9.63
2019-04-23T03:20:14.726Z,9.65
2019-04-23T03:22:15.359Z,9.65
2019-04-23T03:23:17.112Z,9.62
2019-04-23T03:25:10.688Z,9.63
2019-04-23T03:26:14.091Z,9.68
2019-04-23T03:27:17.047Z,9.56
2019-04-23T03:28:11.917Z,9.68
2019-04-23T03:29:16.708Z,9.62
2019-04-23T03:34:50.224Z,9.63
2019-04-23T03:39:03.074Z,9.62
2019-04-23T03:41:17.244Z,9.60
2019-04-23T03:42:12.010Z,9.60
2019-04-23T03:43:19.411Z,9.65
2019-04-23T03:44:06.640Z,9.63
2019-04-23T03:46:16.159Z,9.67
2019-04-23T03:47:16.288Z,9.65
2019-04-23T03:48:16.792Z,9.63
2019-04-23T03:49:19.523Z,9.65
2019-04-23T03:51:03.154Z,9.65
2019-04-23T03:52:23.265Z,9.60
2019-04-23T03:53:03.469Z,9.58
2019-04-23T03:54:26.220Z,9.56
2019-04-23T03:55:10.205Z,9.52
2019-04-23T03:56:12.454Z,9.65
2019-04-23T03:58:10.615Z,9.67
2019-04-23T03:59:10.713Z,9.59
2019-04-23T04:00:12.626Z,9.60
2019-04-23T04:01:11.964Z,9.65
2019-04-23T04:02:20.847Z,9.62
2019-04-23T04:05:17.299Z,9.60
2019-04-23T04:06:20.753Z,9.63
2019-04-23T04:07:22.594Z,9.62
2019-04-23T04:08:13.761Z,9.62
2019-04-23T04:09:21.126Z,9.59
2019-04-23T04:10:10.722Z,9.63
2019-04-23T04:11:11.399Z,9.59
2019-04-23T04:12:12.489Z,9.56
2019-04-23T04:13:07.275Z,9.55
2019-04-23T04:14:36.331Z,9.56
2019-04-23T04:15:18.340Z,9.56
2019-04-23T04:17:13.797Z,9.56
2019-04-23T04:18:28.624Z,9.52
2019-04-23T04:19:16.792Z,9.53
2019-04-23T04:22:21.726Z,9.50
2019-04-23T04:24:21.800Z,9.62
2019-04-23T04:25:06.742Z,9.60
2019-04-23T04:27:29.147Z,9.65
2019-04-23T04:28:14.632Z,9.62
2019-04-23T04:29:15.156Z,9.63
2019-04-23T04:31:05.734Z,9.67
2019-04-23T04:33:15.061Z,9.62
2019-04-23T04:34:21.406Z,9.67
2019-04-23T04:35:20.962Z,9.63
2019-04-23T04:36:13.946Z,9.60
2019-04-23T04:38:20.232Z,9.70
2019-04-23T04:38:59.066Z,9.67
2019-04-23T04:40:23.380Z,9.77
2019-04-23T04:41:09.593Z,9.74
2019-04-23T04:43:24.869Z,9.70
2019-04-23T04:44:38.238Z,9.68
2019-04-23T04:45:24.752Z,9.68
2019-04-23T04:46:34.891Z,9.78
2019-04-23T04:47:33.888Z,9.77
2019-04-23T04:47:58.859Z,9.88
2019-04-23T04:50:06.493Z,9.81
2019-04-23T04:52:22.631Z,9.85
2019-04-23T04:53:22.838Z,9.86
2019-04-23T04:54:21.499Z,9.89
2019-04-23T04:55:21.037Z,9.89
2019-04-23T04:56:14.512Z,9.92
2019-04-23T04:57:10.234Z,9.88
2019-04-23T04:58:07.113Z,9.83
2019-04-23T05:00:12.873Z,9.92
2019-04-23T05:01:13.761Z,9.92
2019-04-23T05:03:22.238Z,9.85
2019-04-23T05:04:14.511Z,9.92
2019-04-23T05:05:20.697Z,9.92
2019-04-23T05:06:16.204Z,9.91
2019-04-23T05:07:10.992Z,9.99
2019-04-23T05:08:11.339Z,10.01
2019-04-23T05:12:17.204Z,10.09
2019-04-23T05:13:22.191Z,10.13
2019-04-23T05:14:23.673Z,9.99
2019-04-23T05:16:07.724Z,10.09
2019-04-23T05:17:11.078Z,10.24
2019-04-23T05:18:17.443Z,10.24
2019-04-23T05:19:15.535Z,10.18
2019-04-23T05:20:04.613Z,10.25
2019-04-23T05:24:57.221Z,10.42
2019-04-23T05:26:02.827Z,10.39
2019-04-23T05:27:03.341Z,10.43
2019-04-23T05:28:08.238Z,10.49
2019-04-23T05:30:09.961Z,10.66
2019-04-23T05:31:05.816Z,10.66
2019-04-23T05:31:58.175Z,10.63
2019-04-23T05:33:07.836Z,10.65
2019-04-23T05:34:04.573Z,10.75
2019-04-23T05:35:07.999Z,10.70
2019-04-23T05:36:13.078Z,10.81
2019-04-23T05:37:00.315Z,10.76
2019-04-23T05:38:29.228Z,10.86
2019-04-23T05:39:12.190Z,10.90
2019-04-23T05:40:08.692Z,10.94
2019-04-23T05:41:11.613Z,10.91
2019-04-23T05:41:59.298Z,11.05
2019-04-23T05:43:08.615Z,11.03
2019-04-23T05:44:02.029Z,11.13
2019-04-23T05:46:04.733Z,11.20
2019-04-23T05:47:13.283Z,11.24
2019-04-23T05:48:06.769Z,11.23
2019-04-23T05:49:09.279Z,11.27
2019-04-23T05:50:10.049Z,11.24
2019-04-23T05:51:04.552Z,11.30
2019-04-23T05:52:14.820Z,11.38
2019-04-23T05:53:04.206Z,11.39
2019-04-23T05:53:58.019Z,11.46
2019-04-23T05:55:02.661Z,11.53
2019-04-23T05:56:01.552Z,11.54
2019-04-23T05:58:00.524Z,11.59
2019-04-23T05:59:07.284Z,11.72
2019-04-23T06:00:04.053Z,11.78
2019-04-23T06:01:08.670Z,11.93
2019-04-23T06:02:09.730Z,11.85
2019-04-23T06:03:04.819Z,11.98
2019-04-23T06:05:05.123Z,12.05
2019-04-23T06:06:08.144Z,12.01
2019-04-23T06:07:15.031Z,12.04
2019-04-23T06:08:07.364Z,12.13
2019-04-23T06:11:02.447Z,12.11
2019-04-23T06:12:57.716Z,12.22
2019-04-23T06:14:09.728Z,12.29
2019-04-23T06:14:57.482Z,12.26
2019-04-23T06:15:59.578Z,12.29
2019-04-23T06:17:12.952Z,12.34
2019-04-23T06:20:05.840Z,12.46
2019-04-23T06:21:05.640Z,12.48
2019-04-23T06:22:06.014Z,12.54
2019-04-23T06:23:05.491Z,12.62
2019-04-23T06:24:13.162Z,12.61
2019-04-23T06:25:01.700Z,12.63
2019-04-23T06:26:24.291Z,12.67
2019-04-23T06:28:05.107Z,12.71
2019-04-23T06:29:06.299Z,12.77
2019-04-23T06:30:19.237Z,12.81
2019-04-23T06:31:04.619Z,12.74
2019-04-23T06:32:12.973Z,12.76
2019-04-23T06:33:04.287Z,12.98
2019-04-23T06:34:04.477Z,12.96
2019-04-23T06:34:56.717Z,12.95
2019-04-23T06:36:05.203Z,12.99
2019-04-23T06:37:02.203Z,12.96
2019-04-23T06:38:22.119Z,13.03
2019-04-23T06:40:00.393Z,13.09
2019-04-23T06:41:00.749Z,13.12
2019-04-23T06:42:03.884Z,13.14
2019-04-23T06:42:57.872Z,13.32
2019-04-23T06:44:07.500Z,13.22
2019-04-23T06:44:59.973Z,13.29
2019-04-23T06:46:01.568Z,13.38
2019-04-23T06:47:03.116Z,13.39
2019-04-23T06:48:01.887Z,13.39
2019-04-23T06:49:02.407Z,13.41
2019-04-23T06:50:01.592Z,13.47
2019-04-23T06:51:09.214Z,13.61
2019-04-23T06:52:10.468Z,13.63
2019-04-23T06:52:54.478Z,13.61
2019-04-23T06:53:57.994Z,13.59
2019-04-23T06:56:06.649Z,13.61
2019-04-23T06:57:09.041Z,13.61
2019-04-23T06:58:06.351Z,13.72
2019-04-23T06:59:02.621Z,13.80
2019-04-23T07:00:13.974Z,13.83
2019-04-23T07:01:03.353Z,13.79
2019-04-23T07:02:06.378Z,13.86
2019-04-23T07:03:00.261Z,13.90
2019-04-23T07:06:13.834Z,14.04
2019-04-23T07:07:29.660Z,13.98
2019-04-23T07:08:04.414Z,14.08
2019-04-23T07:09:59.371Z,14.13
2019-04-23T07:11:11.506Z,14.26
2019-04-23T07:11:55.548Z,14.26
2019-04-23T07:13:06.355Z,14.27
2019-04-23T07:13:58.353Z,14.21
2019-04-23T07:15:11.628Z,14.31
2019-04-23T07:16:01.128Z,14.24
2019-04-23T07:16:58.924Z,14.46
2019-04-23T07:17:58.780Z,14.42
2019-04-23T07:19:04.649Z,14.52
2019-04-23T07:20:02.705Z,14.53
2019-04-23T07:21:06.528Z,14.41
2019-04-23T07:22:09.113Z,14.49
2019-04-23T07:23:04.871Z,14.46
2019-04-23T07:25:00.120Z,14.54
2019-04-23T07:26:06.298Z,14.61
2019-04-23T07:26:55.767Z,14.63
2019-04-23T07:28:07.130Z,14.71
2019-04-23T07:28:59.974Z,14.71
2019-04-23T07:30:11.533Z,14.78
2019-04-23T07:31:07.484Z,14.71
2019-04-23T07:32:05.906Z,14.69
2019-04-23T07:33:04.534Z,14.78
2019-04-23T07:36:58.794Z,14.87
2019-04-23T07:38:05.865Z,14.97
2019-04-23T07:39:11.763Z,14.98
2019-04-23T07:40:18.046Z,14.97
2019-04-23T07:41:05.697Z,15.01
2019-04-23T07:42:27.724Z,15.07
2019-04-23T07:43:03.258Z,15.11
2019-04-23T07:44:07.805Z,15.15
2019-04-23T07:45:02.401Z,15.13
2019-04-23T07:46:02.211Z,15.18
2019-04-23T07:47:11.723Z,15.11
2019-04-23T07:48:06.801Z,15.18
2019-04-23T07:48:56.437Z,15.19
2019-04-23T07:50:11.078Z,15.31
2019-04-23T07:50:57.981Z,15.41
2019-04-23T07:52:06.224Z,15.37
2019-04-23T07:53:08.005Z,15.38
2019-04-23T07:54:12.803Z,15.51
2019-04-23T07:56:02.289Z,15.53
2019-04-23T07:57:08.717Z,15.49
2019-04-23T07:58:12.311Z,15.53
2019-04-23T07:59:03.973Z,15.60
2019-04-23T08:00:00.889Z,15.64
2019-04-23T08:01:13.729Z,15.62
2019-04-23T08:02:06.238Z,15.67
2019-04-23T08:03:08.601Z,15.71
2019-04-23T08:04:16.922Z,15.71
2019-04-23T08:05:11.700Z,15.80
2019-04-23T08:05:59.138Z,15.80
2019-04-23T08:07:01.283Z,15.93
2019-04-23T08:08:03.540Z,16.06
2019-04-23T08:09:03.985Z,16.01
2019-04-23T08:10:00.693Z,16.03
2019-04-23T08:11:25.919Z,16.14
2019-04-23T08:12:02.997Z,16.13
2019-04-23T08:13:00.922Z,16.10
2019-04-23T08:14:04.897Z,16.14
2019-04-23T08:14:59.744Z,16.14
2019-04-23T08:16:06.933Z,16.03
2019-04-23T08:16:58.105Z,16.06
2019-04-23T08:18:01.908Z,16.06
2019-04-23T08:18:59.082Z,15.99
2019-04-23T08:19:59.661Z,16.07
2019-04-23T08:21:01.082Z,16.06
2019-04-23T08:22:06.651Z,16.13
2019-04-23T08:23:03.860Z,16.13
2019-04-23T08:26:13.534Z,16.26
2019-04-23T08:26:59.660Z,16.34
2019-04-23T08:28:01.735Z,16.29
2019-04-23T08:29:03.626Z,16.33
2019-04-23T08:29:58.019Z,16.37
2019-04-23T08:30:59.118Z,16.50
2019-04-23T08:32:03.569Z,16.48
2019-04-23T08:32:52.586Z,16.55
2019-04-23T08:34:05.653Z,16.52
2019-04-23T08:35:04.440Z,16.62
2019-04-23T08:36:09.459Z,16.67
2019-04-23T08:37:04.944Z,16.81
2019-04-23T08:38:09.484Z,16.77
2019-04-23T08:38:56.893Z,16.87
2019-04-23T08:39:52.139Z,16.99
2019-04-23T08:41:14.229Z,16.98
2019-04-23T08:42:21.670Z,16.98
2019-04-23T08:43:03.621Z,16.98
2019-04-23T08:43:57.340Z,16.91
2019-04-23T08:45:58.062Z,17.02
2019-04-23T08:47:05.472Z,17.09
2019-04-23T08:48:09.029Z,17.15
2019-04-23T08:49:03.298Z,17.18
2019-04-23T08:50:01.337Z,17.09
2019-04-23T08:51:08.153Z,17.17
2019-04-23T08:53:05.720Z,17.10
2019-04-23T08:54:03.030Z,17.20
2019-04-23T08:55:05.394Z,17.20
2019-04-23T08:55:56.424Z,17.28
2019-04-23T08:57:04.015Z,17.24
2019-04-23T08:57:58.109Z,17.28
2019-04-23T08:58:57.686Z,17.42
2019-04-23T08:59:55.903Z,17.39
2019-04-23T09:01:03.806Z,17.46
2019-04-23T09:02:18.930Z,17.36
2019-04-23T09:03:06.325Z,17.38
2019-04-23T09:04:00.405Z,17.45
2019-04-23T09:05:02.605Z,17.45
2019-04-23T09:07:09.611Z,17.47
2019-04-23T09:08:07.026Z,17.57
2019-04-23T09:08:58.557Z,17.68
2019-04-23T09:10:07.800Z,17.76
2019-04-23T09:11:30.880Z,17.86
2019-04-23T09:11:58.103Z,17.89
2019-04-23T09:13:26.144Z,17.94
2019-04-23T09:13:55.624Z,17.95
2019-04-23T09:15:04.008Z,17.92
2019-04-23T09:15:59.942Z,17.89
2019-04-23T09:17:06.670Z,17.95
2019-04-23T09:18:06.237Z,18.04
2019-04-23T09:19:03.941Z,18.05
2019-04-23T09:20:55.237Z,18.20
2019-04-23T09:22:10.941Z,18.32
2019-04-23T09:22:59.684Z,18.39
2019-04-23T09:23:59.057Z,18.49
2019-04-23T09:25:06.294Z,18.44
2019-04-23T09:26:00.845Z,18.53
2019-04-23T09:27:05.547Z,18.42
2019-04-23T09:28:02.858Z,18.41
2019-04-23T09:28:56.777Z,18.49
2019-04-23T09:30:07.056Z,18.47
2019-04-23T09:31:05.180Z,18.53
2019-04-23T09:32:59.982Z,18.76
2019-04-23T09:33:58.682Z,18.78
2019-04-23T09:35:08.529Z,18.82
2019-04-23T09:36:01.472Z,18.76
2019-04-23T09:37:06.142Z,18.78
2019-04-23T09:38:05.195Z,18.96
2019-04-23T09:39:00.271Z,18.97
2019-04-23T09:40:13.975Z,18.99
2019-04-23T09:41:09.858Z,18.99
2019-04-23T09:42:07.090Z,18.97
2019-04-23T09:43:00.429Z,18.97
2019-04-23T09:44:03.287Z,18.99
2019-04-23T09:45:15.798Z,19.01
2019-04-23T09:46:08.385Z,19.05
2019-04-23T09:49:09.572Z,19.28
2019-04-23T09:50:01.264Z,19.23
2019-04-23T09:52:03.678Z,19.35
2019-04-23T09:54:02.901Z,19.55
2019-04-23T09:55:11.390Z,19.61
2019-04-23T09:55:53.081Z,19.65
2019-04-23T09:57:14.042Z,19.64
2019-04-23T09:58:03.171Z,19.70
2019-04-23T09:59:01.206Z,19.72
2019-04-23T09:59:58.162Z,19.83
2019-04-23T10:00:54.670Z,19.92
2019-04-23T10:01:52.928Z,19.83
2019-04-23T10:02:47.326Z,19.78
2019-04-23T10:03:42.549Z,19.76
2019-04-23T10:04:48.767Z,19.82
2019-04-23T10:05:45.107Z,19.68
2019-04-23T10:06:33.434Z,19.79
2019-04-23T10:07:46.206Z,19.82
2019-04-23T10:08:39.775Z,19.92
2019-04-23T10:09:32.343Z,20.05
2019-04-23T10:10:32.484Z,20.04
2019-04-23T10:11:32.369Z,19.98
2019-04-23T10:12:32.146Z,20.01
2019-04-23T10:13:31.655Z,19.95
2019-04-23T10:14:32.406Z,20.15
2019-04-23T10:15:36.354Z,20.04
2019-04-23T10:16:34.231Z,20.04
2019-04-23T10:17:31.935Z,20.17
2019-04-23T10:18:31.055Z,20.19
2019-04-23T10:19:30.943Z,20.19
2019-04-23T10:20:30.975Z,20.38
2019-04-23T10:21:31.278Z,20.56
2019-04-23T10:22:34.028Z,20.58
2019-04-23T10:23:31.545Z,20.60
2019-04-23T10:24:31.075Z,20.60
2019-04-23T10:25:31.956Z,20.57
2019-04-23T10:26:32.242Z,20.58
2019-04-23T10:27:30.859Z,20.63
2019-04-23T10:28:31.770Z,20.66
2019-04-23T10:29:31.935Z,20.68
2019-04-23T10:30:31.216Z,20.64
2019-04-23T10:31:31.526Z,20.68
2019-04-23T10:32:31.803Z,20.71
2019-04-23T10:33:31.883Z,20.72
2019-04-23T10:34:43.038Z,20.75
2019-04-23T10:35:41.095Z,20.79
2019-04-23T10:36:32.506Z,20.90
2019-04-23T10:37:41.906Z,20.93
2019-04-23T10:38:32.723Z,20.88
2019-04-23T10:39:35.792Z,20.91
2019-04-23T10:40:35.847Z,20.96
2019-04-23T10:41:32.688Z,20.87
2019-04-23T10:42:33.294Z,20.93
2019-04-23T10:43:31.552Z,20.78
2019-04-23T10:44:32.693Z,20.73
2019-04-23T10:45:44.650Z,20.79
2019-04-23T10:48:07.483Z,21.03
2019-04-23T10:49:00.656Z,20.93
2019-04-23T10:50:00.712Z,20.90
2019-04-23T10:50:59.698Z,20.93
2019-04-23T10:52:07.604Z,21.01
2019-04-23T10:53:13.254Z,20.97
2019-04-23T10:54:07.281Z,21.09
2019-04-23T10:55:02.649Z,21.06
2019-04-23T10:56:21.202Z,21.12
2019-04-23T10:56:59.848Z,21.11
2019-04-23T10:58:01.219Z,21.05
2019-04-23T10:58:54.424Z,21.08
2019-04-23T11:00:59.998Z,20.97
2019-04-23T11:02:21.689Z,21.12
2019-04-23T11:03:15.859Z,21.12
2019-04-23T11:04:10.551Z,21.13
2019-04-23T11:05:11.435Z,21.18
2019-04-23T11:07:07.208Z,21.34
2019-04-23T11:07:54.792Z,21.33
2019-04-23T11:09:06.375Z,21.37
2019-04-23T11:10:03.306Z,21.51
2019-04-23T11:10:58.748Z,21.61
2019-04-23T11:12:07.892Z,21.70
2019-04-23T11:12:50.746Z,21.56
2019-04-23T11:14:07.815Z,21.64
2019-04-23T11:15:08.636Z,21.58
2019-04-23T11:16:24.840Z,21.63
2019-04-23T11:17:17.106Z,21.66
2019-04-23T11:17:59.344Z,21.79
2019-04-23T11:19:15.455Z,21.90
2019-04-23T11:20:11.261Z,21.86
2019-04-23T11:21:00.921Z,21.91
2019-04-23T11:22:20.721Z,22.02
2019-04-23T11:23:09.178Z,22.08
2019-04-23T11:24:01.680Z,22.04
2019-04-23T11:25:15.221Z,22.09
2019-04-23T11:26:03.369Z,22.08
2019-04-23T11:27:00.559Z,22.12
2019-04-23T11:29:02.103Z,22.20
2019-04-23T11:30:10.643Z,22.30
2019-04-23T11:30:55.312Z,22.46
2019-04-23T11:32:11.692Z,22.51
2019-04-23T11:34:12.529Z,22.41
2019-04-23T11:35:11.135Z,22.29
2019-04-23T11:36:22.157Z,22.39
2019-04-23T11:37:03.883Z,22.48
2019-04-23T11:38:32.283Z,22.51
2019-04-23T11:40:01.646Z,22.60
2019-04-23T11:41:02.007Z,22.64
2019-04-23T11:42:08.627Z,22.78
2019-04-23T11:43:08.763Z,22.94
2019-04-23T11:43:53.389Z,22.82
2019-04-23T11:45:28.137Z,22.85
2019-04-23T11:46:10.442Z,22.82
2019-04-23T11:47:44.181Z,22.75
2019-04-23T11:48:21.851Z,22.69
2019-04-23T11:49:20.308Z,22.59
2019-04-23T11:50:12.338Z,22.54
2019-04-23T11:52:21.167Z,22.54
2019-04-23T11:52:56.910Z,22.57
2019-04-23T11:54:03.472Z,22.63
2019-04-23T11:55:04.401Z,22.59
2019-04-23T11:56:07.102Z,22.30
2019-04-23T11:58:07.690Z,22.15
2019-04-23T11:59:06.916Z,22.09
2019-04-23T11:59:59.059Z,22.08
2019-04-23T12:01:11.094Z,22.08
2019-04-23T12:01:56.460Z,22.08
2019-04-23T12:02:54.326Z,22.01
2019-04-23T12:04:13.964Z,22.21
2019-04-23T12:05:21.709Z,22.30
2019-04-23T12:06:09.425Z,22.41
2019-04-23T12:07:00.111Z,22.54
2019-04-23T12:08:01.523Z,22.46
2019-04-23T12:08:56.597Z,22.57
2019-04-23T12:11:27.211Z,22.51
2019-04-23T12:12:55.551Z,22.54
2019-04-23T12:14:04.231Z,22.56
2019-04-23T12:14:51.276Z,22.72
2019-04-23T12:16:00.468Z,22.70
2019-04-23T12:17:15.333Z,22.74
2019-04-23T12:19:28.418Z,22.82
2019-04-23T12:20:02.875Z,22.82
2019-04-23T12:20:57.339Z,22.82
2019-04-23T12:22:01.182Z,22.85
2019-04-23T12:23:18.174Z,22.91
2019-04-23T12:24:07.227Z,22.88
2019-04-23T12:26:07.330Z,23.03
2019-04-23T12:27:01.001Z,23.00
2019-04-23T12:27:47.063Z,23.19
2019-04-23T12:28:57.610Z,23.21
2019-04-23T12:30:01.591Z,23.18
2019-04-23T12:31:17.373Z,23.04
2019-04-23T12:32:06.250Z,23.07
2019-04-23T12:34:09.710Z,23.04
2019-04-23T12:35:51.983Z,22.96
2019-04-23T12:36:56.896Z,23.00
2019-04-23T12:39:08.817Z,23.04
2019-04-23T12:40:11.549Z,23.04
2019-04-23T12:40:56.245Z,22.99
2019-04-23T12:42:01.725Z,23.00
2019-04-23T12:44:00.891Z,23.19
2019-04-23T12:45:11.364Z,23.26
2019-04-23T12:45:50.508Z,23.31
2019-04-23T12:47:07.026Z,23.34
2019-04-23T12:50:20.792Z,23.35
2019-04-23T12:51:17.499Z,23.29
2019-04-23T12:53:59.457Z,23.44
2019-04-23T12:55:10.190Z,23.41
2019-04-23T12:56:05.161Z,23.41
2019-04-23T12:57:09.020Z,23.49
2019-04-23T12:58:51.043Z,23.60
2019-04-23T13:00:03.055Z,23.67
2019-04-23T13:00:54.511Z,23.62
2019-04-23T13:02:03.386Z,23.63
2019-04-23T13:02:57.134Z,23.63
2019-04-23T13:03:55.966Z,23.59
2019-04-23T13:05:00.530Z,23.53
2019-04-23T13:05:50.488Z,23.47
2019-04-23T13:06:57.862Z,23.49
2019-04-23T13:09:22.040Z,23.38
2019-04-23T13:10:01.577Z,23.32
2019-04-23T13:11:01.254Z,23.22
2019-04-23T13:11:58.009Z,23.18
2019-04-23T13:13:01.442Z,23.26
2019-04-23T13:14:00.492Z,23.16
2019-04-23T13:15:53.620Z,23.25
2019-04-23T13:17:25.220Z,23.29
2019-04-23T13:17:54.178Z,23.18
2019-04-23T13:19:03.584Z,23.19
2019-04-23T13:20:00.549Z,23.22
2019-04-23T13:21:02.091Z,23.19
2019-04-23T13:22:16.573Z,23.25
2019-04-23T13:23:03.094Z,23.38
2019-04-23T13:23:55.584Z,23.31
2019-04-23T13:25:01.996Z,23.39
2019-04-23T13:26:48.829Z,23.35
2019-04-23T13:28:01.948Z,23.29
2019-04-23T13:28:52.876Z,23.37
2019-04-23T13:30:16.652Z,23.31
2019-04-23T13:31:59.178Z,23.31
2019-04-23T13:33:03.108Z,23.47
2019-04-23T13:34:13.505Z,23.57
2019-04-23T13:35:11.184Z,23.52
2019-04-23T13:37:03.099Z,23.50
2019-04-23T13:37:58.999Z,23.45
2019-04-23T13:38:58.425Z,23.19
2019-04-23T13:40:17.346Z,23.01
2019-04-23T13:41:01.750Z,22.81
2019-04-23T13:41:52.485Z,22.49
2019-04-23T13:43:00.944Z,22.27
2019-04-23T13:43:49.484Z,22.11
2019-04-23T13:45:05.257Z,21.89
2019-04-23T13:47:00.515Z,21.70
2019-04-23T13:48:01.190Z,21.64
2019-04-23T13:48:58.863Z,21.79
2019-04-23T13:50:33.282Z,21.67
2019-04-23T13:51:00.234Z,21.61
2019-04-23T13:51:58.700Z,21.59
2019-04-23T13:53:53.551Z,21.64
2019-04-23T13:55:10.981Z,21.68
2019-04-23T13:55:56.559Z,21.77
2019-04-23T13:57:36.402Z,21.63
2019-04-23T13:58:09.114Z,21.59
2019-04-23T13:59:16.665Z,21.70
2019-04-23T13:59:56.211Z,21.66
2019-04-23T14:01:22.829Z,21.66
2019-04-23T14:01:58.580Z,21.55
2019-04-23T14:02:54.524Z,21.56
2019-04-23T14:03:54.093Z,21.66
2019-04-23T14:04:59.726Z,21.79
2019-04-23T14:06:01.786Z,21.79
2019-04-23T14:06:59.506Z,21.81
2019-04-23T14:07:59.663Z,21.98
2019-04-23T14:10:06.626Z,22.12
2019-04-23T14:10:55.417Z,22.06
2019-04-23T14:11:51.227Z,22.12
2019-04-23T14:13:15.002Z,22.06
2019-04-23T14:14:21.948Z,22.12
2019-04-23T14:17:02.610Z,22.11
2019-04-23T14:18:22.681Z,22.12
2019-04-23T14:20:04.165Z,22.27
2019-04-23T14:20:58.983Z,22.27
2019-04-23T14:22:13.718Z,22.31
2019-04-23T14:23:08.351Z,22.24
2019-04-23T14:24:08.220Z,22.31
2019-04-23T14:26:10.998Z,22.48
2019-04-23T14:26:59.187Z,22.54
2019-04-23T14:28:08.061Z,22.70
2019-04-23T14:28:55.292Z,22.74
2019-04-23T14:30:07.217Z,22.86
2019-04-23T14:30:59.159Z,22.84
2019-04-23T14:32:04.405Z,22.89
2019-04-23T14:33:00.945Z,22.86
2019-04-23T14:35:21.308Z,22.72
2019-04-23T14:36:05.371Z,22.64
2019-04-23T14:37:04.151Z,22.66
2019-04-23T14:38:15.905Z,22.64
2019-04-23T14:38:57.483Z,22.61
2019-04-23T14:40:10.998Z,22.67
2019-04-23T14:41:16.519Z,22.59
2019-04-23T14:42:14.532Z,22.69
2019-04-23T14:44:03.104Z,22.51
2019-04-23T14:45:13.852Z,22.51
2019-04-23T14:46:23.092Z,22.59
2019-04-23T14:48:05.870Z,22.48
2019-04-23T14:48:57.666Z,22.59
2019-04-23T14:50:23.993Z,22.57
2019-04-23T14:50:56.907Z,22.52
2019-04-23T14:52:02.468Z,22.57
2019-04-23T14:53:10.609Z,22.52
2019-04-23T14:54:02.999Z,22.59
2019-04-23T14:55:36.210Z,22.64
2019-04-23T14:57:08.653Z,22.57
2019-04-23T14:59:01.641Z,22.57
2019-04-23T15:00:03.417Z,22.49
2019-04-23T15:01:17.732Z,22.66
2019-04-23T15:01:58.230Z,22.63
2019-04-23T15:04:59.440Z,22.60
2019-04-23T15:07:00.722Z,22.59
2019-04-23T15:08:02.197Z,22.54
2019-04-23T15:09:06.209Z,22.61
2019-04-23T15:10:01.519Z,22.61
2019-04-23T15:12:02.053Z,22.51
2019-04-23T15:12:59.932Z,22.49
2019-04-23T15:13:55.299Z,22.38
2019-04-23T15:16:08.092Z,22.39
2019-04-23T15:17:00.118Z,22.45